createdAt,value
2022-11-06T00:00:48.493Z,98739.34
2022-11-06T00:06:28.397Z,98748.75
2022-11-06T00:11:54.414Z,98737.94
2022-11-06T00:17:21.584Z,98728.66
2022-11-06T00:22:48.401Z,98725.72
2022-11-06T00:28:14.831Z,98718.63
2022-11-06T00:33:41.397Z,98721.50
2022-11-06T00:39:07.716Z,98716.31
2022-11-06T00:44:31.454Z,98725.25
2022-11-06T00:49:59.379Z,98732.31
2022-11-06T00:55:24.411Z,98727.19
2022-11-06T01:00:55.394Z,98727.66
2022-11-06T01:06:25.405Z,98726.16
2022-11-06T01:17:37.775Z,98733.00
2022-11-06T01:23:04.437Z,98722.06
2022-11-06T01:28:29.410Z,98728.56
2022-11-06T01:33:54.410Z,98721.03
2022-11-06T01:39:24.423Z,98716.03
2022-11-06T01:45:19.678Z,98710.28
2022-11-06T01:50:44.471Z,98702.72
2022-11-06T01:56:14.420Z,98690.47
2022-11-06T02:01:39.495Z,98702.72
2022-11-06T02:07:04.404Z,98702.84
2022-11-06T02:12:45.452Z,98688.09
2022-11-06T02:18:32.451Z,98689.59
2022-11-06T02:24:12.445Z,98688.09
2022-11-06T02:29:47.463Z,98686.19
2022-11-06T02:35:20.479Z,98675.75
2022-11-06T02:40:48.431Z,98679.41
2022-11-06T02:46:21.538Z,98675.03
2022-11-06T02:51:47.428Z,98676.81
2022-11-06T02:57:17.445Z,98678.75
2022-11-06T03:02:55.702Z,98681.19
2022-11-06T03:08:27.472Z,98680.13
2022-11-06T03:14:02.463Z,98676.59
2022-11-06T03:19:37.437Z,98665.41
2022-11-06T03:25:05.449Z,98672.09
2022-11-06T03:30:30.449Z,98658.88
2022-11-06T03:36:01.448Z,98658.44
2022-11-06T03:41:33.467Z,98655.03
2022-11-06T03:47:03.516Z,98666.78
2022-11-06T03:52:40.269Z,98655.03
2022-11-06T03:58:09.478Z,98645.44
2022-11-06T04:03:46.464Z,98634.16
2022-11-06T04:09:29.509Z,98642.31
2022-11-06T04:14:58.496Z,98637.53
2022-11-06T04:20:40.483Z,98646.50
2022-11-06T04:26:34.708Z,98631.59
2022-11-06T04:32:08.533Z,98620.44
2022-11-06T04:37:38.496Z,98621.28
2022-11-06T04:43:11.481Z,98623.94
2022-11-06T04:48:38.640Z,98616.06
2022-11-06T04:54:04.509Z,98620.78
2022-11-06T04:59:33.520Z,98620.38
2022-11-06T05:04:58.525Z,98609.75
2022-11-06T05:10:23.492Z,98597.84
2022-11-06T05:15:51.505Z,98595.72
2022-11-06T05:21:29.699Z,98589.50
2022-11-06T05:26:59.054Z,98591.09
2022-11-06T05:32:26.660Z,98577.47
2022-11-06T05:37:51.507Z,98587.72
2022-11-06T05:43:15.785Z,98590.56
2022-11-06T05:48:43.496Z,98594.31
2022-11-06T05:54:07.525Z,98587.50
2022-11-06T05:59:32.521Z,98593.47
2022-11-06T06:04:59.586Z,98603.25
2022-11-06T06:10:24.536Z,98597.72
2022-11-06T06:15:48.551Z,98603.78
2022-11-06T06:21:16.541Z,98603.25
2022-11-06T06:26:41.690Z,98609.38
2022-11-06T06:32:06.552Z,98604.59
2022-11-06T06:37:33.545Z,98618.13
2022-11-06T06:42:58.672Z,98618.53
2022-11-06T06:48:23.583Z,98629.34
2022-11-06T06:53:51.564Z,98627.97
2022-11-06T06:59:15.572Z,98620.38
2022-11-06T07:04:46.536Z,98620.78
2022-11-06T07:10:15.598Z,98622.84
2022-11-06T07:15:39.629Z,98616.00
2022-11-06T07:21:04.757Z,98610.13
2022-11-06T07:26:31.539Z,98608.81
2022-11-06T07:31:56.551Z,98619.13
2022-11-06T07:37:23.696Z,98613.97
2022-11-06T07:42:51.556Z,98616.31
2022-11-06T07:48:17.624Z,98612.84
2022-11-06T07:53:43.588Z,98594.69
2022-11-06T07:59:11.564Z,98581.16
2022-11-06T08:04:42.586Z,98584.44
2022-11-06T08:10:07.600Z,98589.91
2022-11-06T08:15:34.924Z,98572.41
2022-11-06T08:21:02.588Z,98570.97
2022-11-06T08:26:28.633Z,98554.63
2022-11-06T08:31:55.569Z,98546.47
2022-11-06T08:37:19.581Z,98539.84
2022-11-06T08:42:44.662Z,98527.75
2022-11-06T08:48:15.845Z,98519.13
2022-11-06T08:53:40.709Z,98505.19
2022-11-06T08:59:04.625Z,98494.56
2022-11-06T09:04:41.371Z,98473.22
2022-11-06T09:10:06.614Z,98467.38
2022-11-06T09:15:31.961Z,98459.66
2022-11-06T09:20:59.607Z,98457.44
2022-11-06T09:26:24.606Z,98457.88
2022-11-06T09:31:50.642Z,98454.50
2022-11-06T09:37:17.603Z,98458.03
2022-11-06T09:42:52.837Z,98453.06
2022-11-06T09:48:21.635Z,98446.44
2022-11-06T09:53:54.650Z,98432.72
2022-11-06T09:59:24.656Z,98428.44
2022-11-06T10:05:01.640Z,98428.81
2022-11-06T10:10:34.704Z,98420.28
2022-11-06T10:16:06.654Z,98413.94
2022-11-06T10:21:35.021Z,98411.91
2022-11-06T10:27:09.060Z,98403.09
2022-11-06T10:32:54.657Z,98407.28
2022-11-06T10:38:22.656Z,98401.00
2022-11-06T10:43:56.676Z,98397.03
2022-11-06T10:49:30.657Z,98402.88
2022-11-06T10:55:13.691Z,98380.75
2022-11-06T11:00:40.762Z,98390.97
2022-11-06T11:06:05.667Z,98378.97
2022-11-06T11:11:36.685Z,98355.22
2022-11-06T11:17:05.697Z,98334.47
2022-11-06T11:22:37.045Z,98315.06
2022-11-06T11:28:04.793Z,98296.09
2022-11-06T11:33:36.681Z,98296.97
2022-11-06T11:39:01.691Z,98289.78
2022-11-06T11:44:31.708Z,98283.75
2022-11-06T11:49:59.699Z,98276.56
2022-11-06T11:55:33.717Z,98269.88
2022-11-06T12:01:04.764Z,98259.09
2022-11-06T12:06:38.674Z,98250.25
2022-11-06T12:12:05.700Z,98242.53
2022-11-06T12:17:37.711Z,98229.06
2022-11-06T12:23:09.724Z,98238.16
2022-11-06T12:28:38.726Z,98231.94
2022-11-06T12:34:07.198Z,98222.84
2022-11-06T12:39:41.717Z,98213.06
2022-11-06T12:45:10.723Z,98190.16
2022-11-06T12:50:42.817Z,98187.97
2022-11-06T12:56:21.743Z,98192.19
2022-11-06T13:01:59.826Z,98184.34
2022-11-06T13:07:45.733Z,98175.63
2022-11-06T13:13:27.757Z,98166.09
2022-11-06T13:18:55.758Z,98162.31
2022-11-06T13:24:23.824Z,98155.34
2022-11-06T13:29:51.726Z,98150.03
2022-11-06T13:35:24.722Z,98131.75
2022-11-06T13:40:52.761Z,98127.69
2022-11-06T13:46:29.769Z,98108.72
2022-11-06T13:52:03.765Z,98107.28
2022-11-06T13:57:59.887Z,98083.22
2022-11-06T14:04:04.813Z,98081.06
2022-11-06T14:09:31.751Z,98074.50
2022-11-06T14:14:56.744Z,98073.69
2022-11-06T14:20:42.770Z,98057.63
2022-11-06T14:26:17.769Z,98056.78
2022-11-06T14:32:12.770Z,98041.19
2022-11-06T14:38:03.778Z,98035.75
2022-11-06T14:43:33.795Z,98040.13
2022-11-06T14:49:02.786Z,98030.97
2022-11-06T14:54:32.785Z,98034.38
2022-11-06T14:59:57.792Z,98033.81
2022-11-06T15:05:32.806Z,98031.56
2022-11-06T15:11:03.834Z,98032.28
2022-11-06T15:16:28.811Z,98019.78
2022-11-06T15:21:57.778Z,98030.56
2022-11-06T15:27:31.780Z,98025.50
2022-11-06T15:32:59.809Z,98025.97
2022-11-06T15:38:32.809Z,98013.31
2022-11-06T15:44:02.801Z,98001.66
2022-11-06T15:49:35.814Z,98010.97
2022-11-06T15:55:06.451Z,98004.47
2022-11-06T16:00:37.797Z,98003.19
2022-11-06T16:06:10.825Z,97991.94
2022-11-06T16:11:36.821Z,97992.97
2022-11-06T16:17:05.819Z,98010.09
2022-11-06T16:22:37.853Z,98005.56
2022-11-06T16:28:01.848Z,98009.78
2022-11-06T16:33:32.803Z,98009.75
2022-11-06T16:38:58.917Z,97993.38
2022-11-06T16:44:34.826Z,97974.81
2022-11-06T16:50:12.893Z,97970.34
2022-11-06T16:55:39.853Z,97955.88
2022-11-06T17:01:15.770Z,97971.97
2022-11-06T17:06:52.869Z,97963.25
2022-11-06T17:12:19.849Z,97968.47
2022-11-06T17:17:45.871Z,97970.16
2022-11-06T17:23:16.270Z,97990.78
2022-11-06T17:28:39.851Z,97995.34
2022-11-06T17:34:04.860Z,97988.88
2022-11-06T17:39:32.898Z,97991.53
2022-11-06T17:44:57.873Z,97991.41
2022-11-06T17:50:23.894Z,98000.28
2022-11-06T17:55:51.856Z,97993.94
2022-11-06T18:01:23.990Z,97988.59
2022-11-06T18:06:54.889Z,97989.41
2022-11-06T18:12:23.896Z,97989.41
2022-11-06T18:17:48.878Z,97990.41
2022-11-06T18:23:13.861Z,97988.59
2022-11-06T18:28:41.132Z,97992.25
2022-11-06T18:34:06.904Z,97986.91
2022-11-06T18:39:31.890Z,97976.47
2022-11-06T18:44:59.921Z,97979.84
2022-11-06T18:50:25.899Z,97968.31
2022-11-06T18:55:54.905Z,97969.44
2022-11-06T19:01:24.956Z,97962.56
2022-11-06T19:06:50.068Z,97959.16
2022-11-06T19:12:13.919Z,97956.66
2022-11-06T19:17:41.934Z,97961.03
2022-11-06T19:23:06.886Z,97952.69
2022-11-06T19:28:35.737Z,97948.34
2022-11-06T19:34:04.271Z,97957.03
2022-11-06T19:39:28.950Z,97950.84
2022-11-06T19:44:52.919Z,97943.97
2022-11-06T19:50:39.098Z,97964.09
2022-11-06T19:56:07.946Z,97950.56
2022-11-06T20:01:33.066Z,97944.91
2022-11-06T20:07:08.038Z,97931.09
2022-11-06T20:12:32.942Z,97913.44
2022-11-06T20:17:56.955Z,97899.41
2022-11-06T20:23:23.950Z,97893.06
2022-11-06T20:28:48.964Z,97882.19
2022-11-06T20:34:13.943Z,97871.56
2022-11-06T20:39:40.936Z,97853.06
2022-11-06T20:45:12.065Z,97851.25
2022-11-06T20:50:37.013Z,97852.66
2022-11-06T20:56:04.969Z,97859.63
2022-11-06T21:01:31.087Z,97857.31
2022-11-06T21:07:02.933Z,97842.41
2022-11-06T21:12:31.963Z,97841.59
2022-11-06T21:17:56.939Z,97856.56
2022-11-06T21:23:22.009Z,97868.81
2022-11-06T21:28:50.074Z,97899.13
2022-11-06T21:34:15.017Z,97921.00
2022-11-06T21:39:39.003Z,97926.63
2022-11-06T21:45:09.788Z,97905.75
2022-11-06T21:50:37.333Z,97916.06
2022-11-06T21:56:11.039Z,97922.78
2022-11-06T22:01:39.153Z,97930.41
2022-11-06T22:07:04.330Z,97922.38
2022-11-06T22:12:31.108Z,97910.66
2022-11-06T22:17:59.254Z,97902.78
2022-11-06T22:23:23.032Z,97903.31
2022-11-06T22:28:47.999Z,97903.00
2022-11-06T22:34:16.140Z,97903.22
2022-11-06T22:39:41.018Z,97880.81
2022-11-06T22:45:05.329Z,97870.31
2022-11-06T22:50:33.017Z,97869.16
2022-11-06T22:55:57.062Z,97875.19
2022-11-06T23:01:22.067Z,97865.78
2022-11-06T23:06:50.031Z,97871.31
2022-11-06T23:12:16.279Z,97898.91
2022-11-06T23:17:41.256Z,97920.13
2022-11-06T23:23:09.025Z,97917.41
2022-11-06T23:28:34.069Z,97919.00
2022-11-06T23:33:59.012Z,97934.72
2022-11-06T23:39:26.059Z,97943.38
2022-11-06T23:45:03.066Z,97954.00
2022-11-06T23:50:27.515Z,97953.25
2022-11-06T23:55:55.024Z,97958.59
